Hassler — WTEK — position and weather

sailwx.info

Track history (hours):
 
Tides and Currents Weather Stations Pressure Air Temp Water Temp Dewpoint Dewpoint Depression Visibility Wind Speed Wind Dir Waves Ship Positions

Oceanographic research ship Hassler (USA)

Last reported at 2015-Sep-04 04:28 UTC. Time now 2015-Sep-04 05:56 UTC.
Position N 36°21' W 075°22'.

Length 37 m; draft 3.8 m.

Type: . MMSI: 369970091.

Date/timePositionNaut miles runAvg speedWind from/ knotsBaromVisibWave heightAir tempDewpointWater temp
2015-Sep-04 04:28N 36°21' W 075°22'2 0.5
2015-Sep-04 00:34N 36°21' W 075°19'1 0.5
2015-Sep-03 23:33N 36°21' W 075°20'4 0.8
2015-Sep-03 18:58N 36°18' W 075°18'0 0.0 270 / 7 26.0
2015-Sep-03 17:58N 36°18' W 075°18'0 0.0 250 / 4 25.6
2015-Sep-03 16:58N 36°18' W 075°18'0 0.0 300 / 6 25.3
2015-Sep-03 15:58N 36°18' W 075°18'0 0.0 290 / 8 25.4
2015-Sep-03 14:58N 36°18' W 075°18'0 0.0 310 / 8 25.1
2015-Sep-03 13:58N 36°18' W 075°18'0 0.0 320 / 10 25.1
2015-Sep-03 12:59N 36°18' W 075°18'711.7 310 / 10 25.0
2015-Sep-03 12:20N 36°23' W 075°25'720.6
2015-Sep-03 11:59N 36°18' W 075°18'0 0.0 310 / 11 24.7
2015-Sep-03 10:59N 36°18' W 075°18'0 0.0 300 / 8 24.7
2015-Sep-03 09:59N 36°18' W 075°18'0 0.0 310 / 12 24.5
2015-Sep-03 08:59N 36°18' W 075°18'5 4.8 290 / 11 24.8
2015-Sep-03 07:59N 36°18' W 075°24'5 4.8 320 / 10 24.6
2015-Sep-03 06:59N 36°18' W 075°18'6 6.0 300 / 10 24.8
2015-Sep-03 05:59N 36°24' W 075°18'0 0.0 290 / 14 24.6
2015-Sep-03 04:59N 36°24' W 075°18'5 4.8 310 / 12 25.4
2015-Sep-03 03:59N 36°24' W 075°24'1111.4 260 / 10 26.3
2015-Sep-03 02:59N 36°30' W 075°36'6 9.1 210 / 8 26.3
2015-Sep-03 02:21N 36°33' W 075°42'615.3
2015-Sep-03 01:59N 36°30' W 075°36'5 9.3 190 / 12 26.1
2015-Sep-03 01:24N 36°34' W 075°41'512.3
2015-Sep-03 00:59N 36°30' W 075°36'711.2 200 / 14 26.1
2015-Sep-03 00:23N 36°36' W 075°39'6 4.5
2015-Sep-02 23:00N 36°42' W 075°42'8 7.7 260 / 24 25.6
2015-Sep-02 22:00N 36°48' W 075°48'1615.6 220 / 13 25.5
2015-Sep-02 21:00N 36°54' W 076°06'10 9.6 150 / 11 28.5
2015-Sep-02 20:00N 36°54' W 076°18'6 6.0 080 / 8 29.6
2015-Sep-02 19:00N 36°48' W 076°18'0 0.0 350 / 2 32.8
2015-Sep-02 16:00N 36°48' W 076°18'0 0.0 250 / 3 30.7
2015-Sep-02 15:00N 36°48' W 076°18'0 0.0 270 / 1 29.5
2015-Sep-02 11:58N 36°48' W 076°18'0 0.0 240 / 3 24.3
2015-Sep-02 10:58N 36°48' W 076°18'0 0.0 250 / 1 24.0
2015-Sep-02 09:58N 36°48' W 076°18'0 0.0 190 / 2 23.9
2015-Sep-02 08:58N 36°48' W 076°18'0 0.0 250 / 2 23.9
2015-Sep-02 07:58N 36°48' W 076°18'0 0.0 180 / 2 23.8
2015-Sep-02 06:58N 36°48' W 076°18'0 0.0 180 / 2 24.1
2015-Sep-02 05:58N 36°48' W 076°18'0 0.0 170 / 2 24.3
2015-Sep-02 04:58N 36°48' W 076°18'0 0.0 170 / 3 24.8
2015-Sep-02 03:58N 36°48' W 076°18'0 0.0 140 / 3 25.2
2015-Sep-02 02:58N 36°48' W 076°18'0 0.0 140 / 3 25.5
2015-Sep-02 01:58N 36°48' W 076°18'0 0.0 130 / 4 26.2
2015-Sep-02 00:58N 36°48' W 076°18'0 0.0 120 / 3 27.1
2015-Sep-01 22:59N 36°48' W 076°18'0 0.0 030 / 3 29.0
2015-Sep-01 21:59N 36°48' W 076°18'0 0.0 260 / 4 30.2
2015-Sep-01 20:59N 36°48' W 076°18'0 0.0 330 / 2 30.3
2015-Sep-01 19:59N 36°48' W 076°18'0 0.0 330 / 4 30.2
2015-Sep-01 18:59N 36°48' W 076°18'0 0.0 250 / 5 29.1
2015-Sep-01 17:59N 36°48' W 076°18'0 0.0 280 / 3 28.3
2015-Sep-01 16:59N 36°48' W 076°18'0 0.0 220 / 1 27.3
2015-Sep-01 15:59N 36°48' W 076°18'0 0.0 240 / 1 26.0
2015-Sep-01 14:59N 36°48' W 076°18'0 0.0 250 / 4 25.2
2015-Sep-01 14:53N 36°48' W 076°18'   310 / 2 25.3
2015-Aug-30 04:11N 36°51' W 076°18'3 0.1
2015-Aug-28 12:00N 36°48' W 076°18'0 0.0 160 / 4 24.0
2015-Aug-28 11:00N 36°48' W 076°18'6 6.0 160 / 4 22.9
2015-Aug-28 10:00N 36°54' W 076°18'8 7.7 240 / 4 24.1
2015-Aug-28 09:00N 37°00' W 076°12'1615.6 050 / 12 24.3
2015-Aug-28 08:00N 36°54' W 075°54'8 7.7 050 / 17 24.2
2015-Aug-28 07:00N 36°48' W 075°48'1111.3 030 / 16 24.4
2015-Aug-28 06:00N 36°42' W 075°36'1212.0 020 / 21 24.5
2015-Aug-28 05:00N 36°30' W 075°36'0 0.0 030 / 20 24.7
2015-Aug-27 20:44N 36°30' W 075°36'0 0.0 090 / 5 24.2
2015-Aug-27 18:44N 36°30' W 075°36'0 0.0 320 / 23 24.4
2015-Aug-27 17:44N 36°30' W 075°36'6 6.1 030 / 17 24.6
2015-Aug-27 16:45N 36°24' W 075°36'5 4.8 320 / 27 24.7
2015-Aug-27 15:45N 36°24' W 075°30'10 9.7 070 / 11 24.8
2015-Aug-27 14:45N 36°24' W 075°18'0 0.0 100 / 10 25.0
2015-Aug-27 13:45N 36°24' W 075°18'5 4.8 090 / 11 25.1
2015-Aug-27 12:45N 36°24' W 075°24'5 4.8 020 / 25 25.0
2015-Aug-27 11:45N 36°24' W 075°18'0 0.0 310 / 23 25.3
2015-Aug-27 10:45N 36°24' W 075°18'0 0.0 300 / 25 25.1
2015-Aug-27 09:45N 36°24' W 075°18'0 0.0 090 / 14 25.1
2015-Aug-27 08:45N 36°24' W 075°18'5 4.8 090 / 6 25.4
2015-Aug-27 07:45N 36°24' W 075°24'5 4.8 270 / 15 25.3
2015-Aug-27 06:45N 36°24' W 075°18'0 0.0 290 / 22 25.2
2015-Aug-27 05:45N 36°24' W 075°18'0 0.0 290 / 22 25.5
2015-Aug-27 04:45N 36°24' W 075°18'0 0.0 300 / 23 25.6
2015-Aug-27 03:46N 36°24' W 075°18'0 0.0 080 / 10 25.6
2015-Aug-27 02:46N 36°24' W 075°18'0 0.0 090 / 7 26.2
2015-Aug-27 01:46N 36°24' W 075°18'0 0.0 080 / 8 26.2
2015-Aug-27 00:46N 36°24' W 075°18'0 0.0 080 / 6 26.0
2015-Aug-26 22:46N 36°24' W 075°18'0 0.0 310 / 19 26.3
2015-Aug-26 21:46N 36°24' W 075°18'0 0.0 090 / 4 26.5
2015-Aug-26 20:46N 36°24' W 075°18'0 0.0 090 / 4 26.4
2015-Aug-26 19:46N 36°24' W 075°18'0 0.0 080 / 8 26.4
2015-Aug-26 18:46N 36°24' W 075°18'0 0.0 310 / 19 26.6
2015-Aug-26 17:46N 36°24' W 075°18'0 0.0 100 / 8 26.7
2015-Aug-26 16:46N 36°24' W 075°18'0 0.0 300 / 17 26.5
2015-Aug-26 15:46N 36°24' W 075°18'0 0.0 100 / 7 26.2
2015-Aug-26 14:47N 36°24' W 075°18'0 0.0 320 / 25 26.0
2015-Aug-26 13:47N 36°24' W 075°18'0 0.0 310 / 24 26.0
2015-Aug-26 12:47N 36°24' W 075°18'5 2.4 180 / 2 25.4
2015-Aug-26 10:47N 36°24' W 075°24'5 4.8 070 / 5 25.7
2015-Aug-26 09:47N 36°24' W 075°18'0 0.0 360 / 17 24.9
2015-Aug-26 08:47N 36°24' W 075°18'0 0.0 320 / 11 25.2
2015-Aug-26 07:47N 36°24' W 075°18'0 0.0 040 / 11 25.6
2015-Aug-26 06:47N 36°24' W 075°18'0 0.0 040 / 8 25.7
2015-Aug-26 05:47N 36°24' W 075°18'0 0.0 310 / 10 25.6
2015-Aug-26 04:47N 36°24' W 075°18'0 0.0 030 / 11 25.8
2015-Aug-26 03:47N 36°24' W 075°18'0 0.0 030 / 10 25.8
2015-Aug-26 02:47N 36°24' W 075°18'0 0.0 310 / 6 26.0
2015-Aug-26 01:48N 36°24' W 075°18'0 0.0 310 / 9 26.0
2015-Aug-25 22:48N 36°24' W 075°18'0 0.0 100 / 13 25.0
2015-Aug-25 21:48N 36°24' W 075°18'0 0.0 310 / 10 26.6
2015-Aug-25 20:48N 36°24' W 075°18'1212.0 040 / 10 26.6
2015-Aug-25 19:48N 36°12' W 075°18'0 0.0 060 / 7 26.6
2015-Aug-25 18:48N 36°12' W 075°18'0 0.0 060 / 8 26.6
2015-Aug-25 17:48N 36°12' W 075°18'0 0.0 310 / 9 26.7
2015-Aug-25 16:48N 36°12' W 075°18'1212.0 010 / 9 26.5
2015-Aug-25 15:48N 36°24' W 075°18'0 0.0 020 / 14 26.3
2015-Aug-25 14:48N 36°24' W 075°18'0 0.0 130 / 6 26.3
2015-Aug-25 13:48N 36°24' W 075°18'5 4.9 320 / 14 26.1
2015-Aug-25 12:49N 36°24' W 075°24'5 4.8 060 / 6 26.1
2015-Aug-25 11:49N 36°24' W 075°18'0 0.0 070 / 3 26.0
2015-Aug-25 10:49N 36°24' W 075°18'0 0.0 320 / 16 25.9
2015-Aug-25 09:49N 36°24' W 075°18'0 0.0 310 / 18 25.7
2015-Aug-25 08:49N 36°24' W 075°18'0 0.0 310 / 16 25.7
2015-Aug-25 07:49N 36°24' W 075°18'0 0.0 060 / 11 25.6
2015-Aug-25 05:49N 36°24' W 075°18'0 0.0 290 / 11 25.7
2015-Aug-25 04:49N 36°24' W 075°18'   290 / 13 25.7
Track history (hours):
 
Tides and Currents Weather Stations Pressure Air Temp Water Temp Dewpoint Dewpoint Depression Visibility Wind Speed Wind Dir Waves Ship Positions

Oceanographic research ship Hassler (USA)

Last reported at 2015-Sep-04 04:28 UTC. Time now 2015-Sep-04 05:56 UTC.
Position N 36°21' W 075°22'.

Length 37 m; draft 3.8 m.

Type: . MMSI: 369970091.

Date/timePositionNaut miles runAvg speedWind from/ knotsBaromVisibWave heightAir tempDewpointWater temp
2015-Sep-04 04:28N 36°21' W 075°22'2 0.5
2015-Sep-04 00:34N 36°21' W 075°19'1 0.5
2015-Sep-03 23:33N 36°21' W 075°20'4 0.8
2015-Sep-03 18:58N 36°18' W 075°18'0 0.0 270 / 7 26.0
2015-Sep-03 17:58N 36°18' W 075°18'0 0.0 250 / 4 25.6
2015-Sep-03 16:58N 36°18' W 075°18'0 0.0 300 / 6 25.3
2015-Sep-03 15:58N 36°18' W 075°18'0 0.0 290 / 8 25.4
2015-Sep-03 14:58N 36°18' W 075°18'0 0.0 310 / 8 25.1
2015-Sep-03 13:58N 36°18' W 075°18'0 0.0 320 / 10 25.1
2015-Sep-03 12:59N 36°18' W 075°18'711.7 310 / 10 25.0
2015-Sep-03 12:20N 36°23' W 075°25'720.6
2015-Sep-03 11:59N 36°18' W 075°18'0 0.0 310 / 11 24.7
2015-Sep-03 10:59N 36°18' W 075°18'0 0.0 300 / 8 24.7
2015-Sep-03 09:59N 36°18' W 075°18'0 0.0 310 / 12 24.5
2015-Sep-03 08:59N 36°18' W 075°18'5 4.8 290 / 11 24.8
2015-Sep-03 07:59N 36°18' W 075°24'5 4.8 320 / 10 24.6
2015-Sep-03 06:59N 36°18' W 075°18'6 6.0 300 / 10 24.8
2015-Sep-03 05:59N 36°24' W 075°18'0 0.0 290 / 14 24.6
2015-Sep-03 04:59N 36°24' W 075°18'5 4.8 310 / 12 25.4
2015-Sep-03 03:59N 36°24' W 075°24'1111.4 260 / 10 26.3
2015-Sep-03 02:59N 36°30' W 075°36'6 9.1 210 / 8 26.3
2015-Sep-03 02:21N 36°33' W 075°42'615.3
2015-Sep-03 01:59N 36°30' W 075°36'5 9.3 190 / 12 26.1
2015-Sep-03 01:24N 36°34' W 075°41'512.3
2015-Sep-03 00:59N 36°30' W 075°36'711.2 200 / 14 26.1
2015-Sep-03 00:23N 36°36' W 075°39'6 4.5
2015-Sep-02 23:00N 36°42' W 075°42'8 7.7 260 / 24 25.6
2015-Sep-02 22:00N 36°48' W 075°48'1615.6 220 / 13 25.5
2015-Sep-02 21:00N 36°54' W 076°06'10 9.6 150 / 11 28.5
2015-Sep-02 20:00N 36°54' W 076°18'6 6.0 080 / 8 29.6
2015-Sep-02 19:00N 36°48' W 076°18'0 0.0 350 / 2 32.8
2015-Sep-02 16:00N 36°48' W 076°18'0 0.0 250 / 3 30.7
2015-Sep-02 15:00N 36°48' W 076°18'0 0.0 270 / 1 29.5
2015-Sep-02 11:58N 36°48' W 076°18'0 0.0 240 / 3 24.3
2015-Sep-02 10:58N 36°48' W 076°18'0 0.0 250 / 1 24.0
2015-Sep-02 09:58N 36°48' W 076°18'0 0.0 190 / 2 23.9
2015-Sep-02 08:58N 36°48' W 076°18'0 0.0 250 / 2 23.9
2015-Sep-02 07:58N 36°48' W 076°18'0 0.0 180 / 2 23.8
2015-Sep-02 06:58N 36°48' W 076°18'0 0.0 180 / 2 24.1
2015-Sep-02 05:58N 36°48' W 076°18'0 0.0 170 / 2 24.3
2015-Sep-02 04:58N 36°48' W 076°18'0 0.0 170 / 3 24.8
2015-Sep-02 03:58N 36°48' W 076°18'0 0.0 140 / 3 25.2
2015-Sep-02 02:58N 36°48' W 076°18'0 0.0 140 / 3 25.5
2015-Sep-02 01:58N 36°48' W 076°18'0 0.0 130 / 4 26.2
2015-Sep-02 00:58N 36°48' W 076°18'0 0.0 120 / 3 27.1
2015-Sep-01 22:59N 36°48' W 076°18'0 0.0 030 / 3 29.0
2015-Sep-01 21:59N 36°48' W 076°18'0 0.0 260 / 4 30.2
2015-Sep-01 20:59N 36°48' W 076°18'0 0.0 330 / 2 30.3
2015-Sep-01 19:59N 36°48' W 076°18'0 0.0 330 / 4 30.2
2015-Sep-01 18:59N 36°48' W 076°18'0 0.0 250 / 5 29.1
2015-Sep-01 17:59N 36°48' W 076°18'0 0.0 280 / 3 28.3
2015-Sep-01 16:59N 36°48' W 076°18'0 0.0 220 / 1 27.3
2015-Sep-01 15:59N 36°48' W 076°18'0 0.0 240 / 1 26.0
2015-Sep-01 14:59N 36°48' W 076°18'0 0.0 250 / 4 25.2
2015-Sep-01 14:53N 36°48' W 076°18'   310 / 2 25.3
2015-Aug-30 04:11N 36°51' W 076°18'3 0.1
2015-Aug-28 12:00N 36°48' W 076°18'0 0.0 160 / 4 24.0
2015-Aug-28 11:00N 36°48' W 076°18'6 6.0 160 / 4 22.9
2015-Aug-28 10:00N 36°54' W 076°18'8 7.7 240 / 4 24.1
2015-Aug-28 09:00N 37°00' W 076°12'1615.6 050 / 12 24.3
2015-Aug-28 08:00N 36°54' W 075°54'8 7.7 050 / 17 24.2
2015-Aug-28 07:00N 36°48' W 075°48'1111.3 030 / 16 24.4
2015-Aug-28 06:00N 36°42' W 075°36'1212.0 020 / 21 24.5
2015-Aug-28 05:00N 36°30' W 075°36'0 0.0 030 / 20 24.7
2015-Aug-27 20:44N 36°30' W 075°36'0 0.0 090 / 5 24.2
2015-Aug-27 18:44N 36°30' W 075°36'0 0.0 320 / 23 24.4
2015-Aug-27 17:44N 36°30' W 075°36'6 6.1 030 / 17 24.6
2015-Aug-27 16:45N 36°24' W 075°36'5 4.8 320 / 27 24.7
2015-Aug-27 15:45N 36°24' W 075°30'10 9.7 070 / 11 24.8
2015-Aug-27 14:45N 36°24' W 075°18'0 0.0 100 / 10 25.0
2015-Aug-27 13:45N 36°24' W 075°18'5 4.8 090 / 11 25.1
2015-Aug-27 12:45N 36°24' W 075°24'5 4.8 020 / 25 25.0
2015-Aug-27 11:45N 36°24' W 075°18'0 0.0 310 / 23 25.3
2015-Aug-27 10:45N 36°24' W 075°18'0 0.0 300 / 25 25.1
2015-Aug-27 09:45N 36°24' W 075°18'0 0.0 090 / 14 25.1
2015-Aug-27 08:45N 36°24' W 075°18'5 4.8 090 / 6 25.4
2015-Aug-27 07:45N 36°24' W 075°24'5 4.8 270 / 15 25.3
2015-Aug-27 06:45N 36°24' W 075°18'0 0.0 290 / 22 25.2
2015-Aug-27 05:45N 36°24' W 075°18'0 0.0 290 / 22 25.5
2015-Aug-27 04:45N 36°24' W 075°18'0 0.0 300 / 23 25.6
2015-Aug-27 03:46N 36°24' W 075°18'0 0.0 080 / 10 25.6
2015-Aug-27 02:46N 36°24' W 075°18'0 0.0 090 / 7 26.2
2015-Aug-27 01:46N 36°24' W 075°18'0 0.0 080 / 8 26.2
2015-Aug-27 00:46N 36°24' W 075°18'0 0.0 080 / 6 26.0
2015-Aug-26 22:46N 36°24' W 075°18'0 0.0 310 / 19 26.3
2015-Aug-26 21:46N 36°24' W 075°18'0 0.0 090 / 4 26.5
2015-Aug-26 20:46N 36°24' W 075°18'0 0.0 090 / 4 26.4
2015-Aug-26 19:46N 36°24' W 075°18'0 0.0 080 / 8 26.4
2015-Aug-26 18:46N 36°24' W 075°18'0 0.0 310 / 19 26.6
2015-Aug-26 17:46N 36°24' W 075°18'0 0.0 100 / 8 26.7
2015-Aug-26 16:46N 36°24' W 075°18'0 0.0 300 / 17 26.5
2015-Aug-26 15:46N 36°24' W 075°18'0 0.0 100 / 7 26.2
2015-Aug-26 14:47N 36°24' W 075°18'0 0.0 320 / 25 26.0
2015-Aug-26 13:47N 36°24' W 075°18'0 0.0 310 / 24 26.0
2015-Aug-26 12:47N 36°24' W 075°18'5 2.4 180 / 2 25.4
2015-Aug-26 10:47N 36°24' W 075°24'5 4.8 070 / 5 25.7
2015-Aug-26 09:47N 36°24' W 075°18'0 0.0 360 / 17 24.9
2015-Aug-26 08:47N 36°24' W 075°18'0 0.0 320 / 11 25.2
2015-Aug-26 07:47N 36°24' W 075°18'0 0.0 040 / 11 25.6
2015-Aug-26 06:47N 36°24' W 075°18'0 0.0 040 / 8 25.7
2015-Aug-26 05:47N 36°24' W 075°18'0 0.0 310 / 10 25.6
2015-Aug-26 04:47N 36°24' W 075°18'0 0.0 030 / 11 25.8
2015-Aug-26 03:47N 36°24' W 075°18'0 0.0 030 / 10 25.8
2015-Aug-26 02:47N 36°24' W 075°18'0 0.0 310 / 6 26.0
2015-Aug-26 01:48N 36°24' W 075°18'0 0.0 310 / 9 26.0
2015-Aug-25 22:48N 36°24' W 075°18'0 0.0 100 / 13 25.0
2015-Aug-25 21:48N 36°24' W 075°18'0 0.0 310 / 10 26.6
2015-Aug-25 20:48N 36°24' W 075°18'1212.0 040 / 10 26.6
2015-Aug-25 19:48N 36°12' W 075°18'0 0.0 060 / 7 26.6
2015-Aug-25 18:48N 36°12' W 075°18'0 0.0 060 / 8 26.6
2015-Aug-25 17:48N 36°12' W 075°18'0 0.0 310 / 9 26.7
2015-Aug-25 16:48N 36°12' W 075°18'1212.0 010 / 9 26.5
2015-Aug-25 15:48N 36°24' W 075°18'0 0.0 020 / 14 26.3
2015-Aug-25 14:48N 36°24' W 075°18'0 0.0 130 / 6 26.3
2015-Aug-25 13:48N 36°24' W 075°18'5 4.9 320 / 14 26.1
2015-Aug-25 12:49N 36°24' W 075°24'5 4.8 060 / 6 26.1
2015-Aug-25 11:49N 36°24' W 075°18'0 0.0 070 / 3 26.0
2015-Aug-25 10:49N 36°24' W 075°18'0 0.0 320 / 16 25.9
2015-Aug-25 09:49N 36°24' W 075°18'0 0.0 310 / 18 25.7
2015-Aug-25 08:49N 36°24' W 075°18'0 0.0 310 / 16 25.7
2015-Aug-25 07:49N 36°24' W 075°18'0 0.0 060 / 11 25.6
2015-Aug-25 05:49N 36°24' W 075°18'0 0.0 290 / 11 25.7
2015-Aug-25 04:49N 36°24' W 075°18'   290 / 13 25.7

Dump ship's entire track history